sensor_id;sensor_type;location;lat;lon;timestamp;P1;durP1;ratioP1;P2;durP2;ratioP2
57577;SDS011;43413;-33.790;150.826;2022-10-15T00:01:12;2.00;;;0.55;;
57577;SDS011;43413;-33.790;150.826;2022-10-15T00:03:40;7.72;;;1.23;;
57577;SDS011;43413;-33.790;150.826;2022-10-15T00:06:09;5.90;;;0.98;;
57577;SDS011;43413;-33.790;150.826;2022-10-15T00:08:36;4.93;;;0.80;;
57577;SDS011;43413;-33.790;150.826;2022-10-15T00:11:11;4.03;;;0.63;;
57577;SDS011;43413;-33.790;150.826;2022-10-15T00:13:42;4.47;;;0.70;;
57577;SDS011;43413;-33.790;150.826;2022-10-15T00:16:13;2.03;;;0.65;;
57577;SDS011;43413;-33.790;150.826;2022-10-15T00:18:40;7.68;;;1.20;;
57577;SDS011;43413;-33.790;150.826;2022-10-15T00:21:08;6.20;;;0.68;;
57577;SDS011;43413;-33.790;150.826;2022-10-15T00:23:36;2.72;;;0.63;;
57577;SDS011;43413;-33.790;150.826;2022-10-15T00:26:13;4.72;;;0.80;;
57577;SDS011;43413;-33.790;150.826;2022-10-15T00:28:41;9.35;;;1.08;;
57577;SDS011;43413;-33.790;150.826;2022-10-15T00:31:09;10.05;;;1.23;;
57577;SDS011;43413;-33.790;150.826;2022-10-15T00:33:37;4.68;;;0.77;;
57577;SDS011;43413;-33.790;150.826;2022-10-15T00:36:05;3.50;;;0.90;;
57577;SDS011;43413;-33.790;150.826;2022-10-15T00:38:33;7.60;;;1.00;;
57577;SDS011;43413;-33.790;150.826;2022-10-15T00:41:01;2.45;;;0.60;;
57577;SDS011;43413;-33.790;150.826;2022-10-15T00:43:35;3.33;;;0.80;;
57577;SDS011;43413;-33.790;150.826;2022-10-15T00:46:02;6.57;;;0.77;;
57577;SDS011;43413;-33.790;150.826;2022-10-15T00:48:30;3.42;;;0.60;;
57577;SDS011;43413;-33.790;150.826;2022-10-15T00:50:58;3.03;;;0.63;;
57577;SDS011;43413;-33.790;150.826;2022-10-15T00:53:27;5.38;;;0.70;;
57577;SDS011;43413;-33.790;150.826;2022-10-15T00:55:54;3.58;;;0.77;;
57577;SDS011;43413;-33.790;150.826;2022-10-15T00:58:21;2.45;;;0.70;;
57577;SDS011;43413;-33.790;150.826;2022-10-15T01:00:53;3.50;;;0.85;;
57577;SDS011;43413;-33.790;150.826;2022-10-15T01:03:21;8.00;;;0.80;;
57577;SDS011;43413;-33.790;150.826;2022-10-15T01:05:48;6.53;;;0.95;;
57577;SDS011;43413;-33.790;150.826;2022-10-15T01:08:17;2.97;;;0.68;;
57577;SDS011;43413;-33.790;150.826;2022-10-15T01:18:55;4.05;;;0.85;;
57577;SDS011;43413;-33.790;150.826;2022-10-15T01:21:24;2.55;;;0.70;;
57577;SDS011;43413;-33.790;150.826;2022-10-15T01:32:11;3.20;;;0.80;;
57577;SDS011;43413;-33.790;150.826;2022-10-15T01:40:22;3.38;;;0.73;;
57577;SDS011;43413;-33.790;150.826;2022-10-15T01:42:57;3.53;;;0.70;;
57577;SDS011;43413;-33.790;150.826;2022-10-15T01:45:32;2.90;;;0.80;;
57577;SDS011;43413;-33.790;150.826;2022-10-15T01:48:08;3.25;;;1.02;;
57577;SDS011;43413;-33.790;150.826;2022-10-15T01:50:37;5.93;;;0.80;;
57577;SDS011;43413;-33.790;150.826;2022-10-15T01:53:05;1.65;;;0.55;;
57577;SDS011;43413;-33.790;150.826;2022-10-15T01:55:34;2.15;;;0.55;;
57577;SDS011;43413;-33.790;150.826;2022-10-15T01:58:02;3.50;;;0.90;;
57577;SDS011;43413;-33.790;150.826;2022-10-15T02:00:30;4.22;;;0.88;;
57577;SDS011;43413;-33.790;150.826;2022-10-15T02:03:02;4.53;;;0.82;;
57577;SDS011;43413;-33.790;150.826;2022-10-15T02:05:44;3.03;;;0.60;;
57577;SDS011;43413;-33.790;150.826;2022-10-15T02:08:18;3.65;;;0.88;;
57577;SDS011;43413;-33.790;150.826;2022-10-15T02:10:51;4.93;;;0.82;;
57577;SDS011;43413;-33.790;150.826;2022-10-15T02:16:18;5.35;;;1.00;;
57577;SDS011;43413;-33.790;150.826;2022-10-15T02:21:21;6.95;;;1.00;;
57577;SDS011;43413;-33.790;150.826;2022-10-15T02:23:58;6.68;;;0.90;;
57577;SDS011;43413;-33.790;150.826;2022-10-15T02:26:31;7.18;;;0.80;;
57577;SDS011;43413;-33.790;150.826;2022-10-15T02:29:00;7.93;;;0.80;;
57577;SDS011;43413;-33.790;150.826;2022-10-15T02:31:29;6.13;;;0.85;;
57577;SDS011;43413;-33.790;150.826;2022-10-15T02:33:59;8.93;;;1.58;;
57577;SDS011;43413;-33.790;150.826;2022-10-15T02:36:27;3.90;;;0.73;;
57577;SDS011;43413;-33.790;150.826;2022-10-15T02:38:55;6.47;;;0.85;;
57577;SDS011;43413;-33.790;150.826;2022-10-15T02:41:24;4.38;;;0.70;;
57577;SDS011;43413;-33.790;150.826;2022-10-15T02:43:52;4.85;;;1.00;;
57577;SDS011;43413;-33.790;150.826;2022-10-15T02:46:20;3.05;;;0.80;;
57577;SDS011;43413;-33.790;150.826;2022-10-15T02:48:47;4.88;;;0.98;;
57577;SDS011;43413;-33.790;150.826;2022-10-15T02:51:14;3.42;;;0.90;;
57577;SDS011;43413;-33.790;150.826;2022-10-15T02:53:41;3.55;;;0.82;;
57577;SDS011;43413;-33.790;150.826;2022-10-15T02:56:08;2.70;;;0.95;;
57577;SDS011;43413;-33.790;150.826;2022-10-15T02:58:35;3.13;;;1.00;;
57577;SDS011;43413;-33.790;150.826;2022-10-15T03:01:03;4.28;;;0.85;;
57577;SDS011;43413;-33.790;150.826;2022-10-15T03:03:30;3.00;;;1.00;;
57577;SDS011;43413;-33.790;150.826;2022-10-15T03:05:57;4.63;;;0.82;;
57577;SDS011;43413;-33.790;150.826;2022-10-15T03:08:24;5.30;;;0.77;;
57577;SDS011;43413;-33.790;150.826;2022-10-15T03:10:51;7.72;;;1.40;;
57577;SDS011;43413;-33.790;150.826;2022-10-15T03:13:19;4.32;;;0.90;;
57577;SDS011;43413;-33.790;150.826;2022-10-15T03:15:46;3.75;;;0.93;;
57577;SDS011;43413;-33.790;150.826;2022-10-15T03:18:13;4.45;;;0.90;;
57577;SDS011;43413;-33.790;150.826;2022-10-15T03:20:40;9.80;;;1.20;;
57577;SDS011;43413;-33.790;150.826;2022-10-15T03:23:07;6.07;;;0.98;;
57577;SDS011;43413;-33.790;150.826;2022-10-15T03:25:34;6.72;;;1.30;;
57577;SDS011;43413;-33.790;150.826;2022-10-15T03:28:01;7.82;;;1.02;;
57577;SDS011;43413;-33.790;150.826;2022-10-15T03:30:29;4.00;;;0.98;;
57577;SDS011;43413;-33.790;150.826;2022-10-15T03:32:56;2.60;;;0.70;;
57577;SDS011;43413;-33.790;150.826;2022-10-15T03:35:23;2.28;;;1.00;;
57577;SDS011;43413;-33.790;150.826;2022-10-15T03:37:50;8.55;;;1.08;;
57577;SDS011;43413;-33.790;150.826;2022-10-15T03:40:17;3.88;;;0.98;;
57577;SDS011;43413;-33.790;150.826;2022-10-15T03:42:48;5.90;;;1.10;;
57577;SDS011;43413;-33.790;150.826;2022-10-15T03:45:19;8.02;;;1.08;;
57577;SDS011;43413;-33.790;150.826;2022-10-15T03:47:46;5.15;;;0.70;;
57577;SDS011;43413;-33.790;150.826;2022-10-15T03:50:13;8.00;;;1.33;;
57577;SDS011;43413;-33.790;150.826;2022-10-15T03:52:40;4.65;;;1.15;;
57577;SDS011;43413;-33.790;150.826;2022-10-15T03:55:08;4.15;;;1.00;;
57577;SDS011;43413;-33.790;150.826;2022-10-15T03:57:36;6.75;;;1.45;;
57577;SDS011;43413;-33.790;150.826;2022-10-15T04:00:05;3.50;;;0.88;;
57577;SDS011;43413;-33.790;150.826;2022-10-15T04:02:32;4.65;;;1.15;;
57577;SDS011;43413;-33.790;150.826;2022-10-15T04:04:59;6.28;;;1.40;;
57577;SDS011;43413;-33.790;150.826;2022-10-15T04:07:26;4.88;;;1.08;;
57577;SDS011;43413;-33.790;150.826;2022-10-15T04:09:54;4.47;;;1.05;;
57577;SDS011;43413;-33.790;150.826;2022-10-15T04:12:21;4.82;;;1.10;;
57577;SDS011;43413;-33.790;150.826;2022-10-15T04:14:48;5.45;;;1.05;;
57577;SDS011;43413;-33.790;150.826;2022-10-15T04:17:15;3.47;;;1.30;;
57577;SDS011;43413;-33.790;150.826;2022-10-15T04:19:42;5.97;;;0.88;;
57577;SDS011;43413;-33.790;150.826;2022-10-15T04:22:09;3.85;;;0.70;;
57577;SDS011;43413;-33.790;150.826;2022-10-15T04:24:37;3.35;;;0.82;;
57577;SDS011;43413;-33.790;150.826;2022-10-15T04:27:04;5.45;;;0.95;;
57577;SDS011;43413;-33.790;150.826;2022-10-15T04:29:32;4.18;;;0.80;;
57577;SDS011;43413;-33.790;150.826;2022-10-15T04:31:59;4.68;;;1.17;;
57577;SDS011;43413;-33.790;150.826;2022-10-15T04:34:26;4.78;;;0.98;;
57577;SDS011;43413;-33.790;150.826;2022-10-15T04:36:54;4.53;;;1.00;;
57577;SDS011;43413;-33.790;150.826;2022-10-15T04:39:21;5.07;;;0.95;;
57577;SDS011;43413;-33.790;150.826;2022-10-15T04:41:49;2.53;;;0.73;;
57577;SDS011;43413;-33.790;150.826;2022-10-15T04:44:16;8.05;;;0.73;;
57577;SDS011;43413;-33.790;150.826;2022-10-15T04:46:43;5.55;;;1.10;;
57577;SDS011;43413;-33.790;150.826;2022-10-15T04:49:11;5.18;;;1.00;;
57577;SDS011;43413;-33.790;150.826;2022-10-15T04:51:38;3.25;;;0.85;;
57577;SDS011;43413;-33.790;150.826;2022-10-15T04:54:05;2.80;;;0.80;;
57577;SDS011;43413;-33.790;150.826;2022-10-15T04:56:32;6.63;;;0.93;;
57577;SDS011;43413;-33.790;150.826;2022-10-15T04:58:59;4.35;;;0.75;;
57577;SDS011;43413;-33.790;150.826;2022-10-15T05:01:26;4.07;;;0.80;;
57577;SDS011;43413;-33.790;150.826;2022-10-15T05:03:54;4.38;;;0.85;;
57577;SDS011;43413;-33.790;150.826;2022-10-15T05:06:21;5.60;;;1.10;;
57577;SDS011;43413;-33.790;150.826;2022-10-15T05:08:48;4.07;;;0.70;;
57577;SDS011;43413;-33.790;150.826;2022-10-15T05:11:17;5.95;;;1.30;;
57577;SDS011;43413;-33.790;150.826;2022-10-15T05:13:44;2.72;;;0.85;;
57577;SDS011;43413;-33.790;150.826;2022-10-15T05:16:19;4.43;;;0.73;;
57577;SDS011;43413;-33.790;150.826;2022-10-15T05:18:47;4.73;;;1.00;;
57577;SDS011;43413;-33.790;150.826;2022-10-15T05:21:15;5.10;;;1.00;;
57577;SDS011;43413;-33.790;150.826;2022-10-15T05:23:43;5.47;;;0.70;;
57577;SDS011;43413;-33.790;150.826;2022-10-15T05:26:12;1.80;;;0.63;;
57577;SDS011;43413;-33.790;150.826;2022-10-15T05:28:40;5.05;;;0.85;;
57577;SDS011;43413;-33.790;150.826;2022-10-15T05:31:11;2.70;;;0.65;;
57577;SDS011;43413;-33.790;150.826;2022-10-15T05:33:39;7.05;;;0.77;;
57577;SDS011;43413;-33.790;150.826;2022-10-15T05:36:28;2.50;;;0.70;;
57577;SDS011;43413;-33.790;150.826;2022-10-15T05:38:55;5.38;;;0.73;;
57577;SDS011;43413;-33.790;150.826;2022-10-15T05:41:23;4.07;;;0.85;;
57577;SDS011;43413;-33.790;150.826;2022-10-15T05:43:51;4.40;;;0.70;;
57577;SDS011;43413;-33.790;150.826;2022-10-15T05:46:19;2.78;;;0.80;;
57577;SDS011;43413;-33.790;150.826;2022-10-15T05:48:47;3.92;;;0.80;;
57577;SDS011;43413;-33.790;150.826;2022-10-15T05:51:14;5.03;;;0.80;;
57577;SDS011;43413;-33.790;150.826;2022-10-15T05:53:42;3.33;;;0.85;;
57577;SDS011;43413;-33.790;150.826;2022-10-15T05:56:11;5.32;;;0.85;;
57577;SDS011;43413;-33.790;150.826;2022-10-15T05:58:38;7.95;;;1.00;;
57577;SDS011;43413;-33.790;150.826;2022-10-15T06:01:07;4.60;;;0.98;;
57577;SDS011;43413;-33.790;150.826;2022-10-15T06:03:34;4.65;;;0.98;;
57577;SDS011;43413;-33.790;150.826;2022-10-15T06:06:02;6.38;;;1.05;;
57577;SDS011;43413;-33.790;150.826;2022-10-15T06:08:30;3.10;;;0.75;;
57577;SDS011;43413;-33.790;150.826;2022-10-15T06:11:03;6.93;;;0.80;;
57577;SDS011;43413;-33.790;150.826;2022-10-15T06:13:30;5.38;;;0.88;;
57577;SDS011;43413;-33.790;150.826;2022-10-15T06:15:57;5.72;;;0.82;;
57577;SDS011;43413;-33.790;150.826;2022-10-15T06:18:25;4.63;;;0.90;;
57577;SDS011;43413;-33.790;150.826;2022-10-15T06:20:52;2.25;;;0.80;;
57577;SDS011;43413;-33.790;150.826;2022-10-15T06:23:19;4.53;;;1.08;;
57577;SDS011;43413;-33.790;150.826;2022-10-15T06:25:49;2.78;;;0.70;;
57577;SDS011;43413;-33.790;150.826;2022-10-15T06:28:16;4.70;;;0.65;;
57577;SDS011;43413;-33.790;150.826;2022-10-15T06:30:44;2.45;;;0.60;;
57577;SDS011;43413;-33.790;150.826;2022-10-15T06:33:11;3.53;;;0.70;;
57577;SDS011;43413;-33.790;150.826;2022-10-15T06:35:40;3.13;;;0.65;;
57577;SDS011;43413;-33.790;150.826;2022-10-15T06:38:08;4.97;;;1.08;;
57577;SDS011;43413;-33.790;150.826;2022-10-15T06:40:36;3.33;;;0.82;;
57577;SDS011;43413;-33.790;150.826;2022-10-15T06:43:07;3.92;;;0.70;;
57577;SDS011;43413;-33.790;150.826;2022-10-15T06:45:38;3.85;;;0.70;;
57577;SDS011;43413;-33.790;150.826;2022-10-15T06:48:09;2.88;;;0.70;;
57577;SDS011;43413;-33.790;150.826;2022-10-15T06:50:37;5.85;;;0.85;;
57577;SDS011;43413;-33.790;150.826;2022-10-15T06:53:05;13.82;;;1.88;;
57577;SDS011;43413;-33.790;150.826;2022-10-15T06:55:33;3.13;;;0.73;;
57577;SDS011;43413;-33.790;150.826;2022-10-15T06:58:00;5.38;;;0.77;;
57577;SDS011;43413;-33.790;150.826;2022-10-15T07:00:28;3.88;;;0.80;;
57577;SDS011;43413;-33.790;150.826;2022-10-15T07:02:55;10.32;;;1.27;;
57577;SDS011;43413;-33.790;150.826;2022-10-15T07:05:22;6.93;;;1.10;;
57577;SDS011;43413;-33.790;150.826;2022-10-15T07:07:53;3.78;;;1.00;;
57577;SDS011;43413;-33.790;150.826;2022-10-15T07:10:20;4.53;;;1.30;;
57577;SDS011;43413;-33.790;150.826;2022-10-15T07:12:48;2.55;;;0.80;;
57577;SDS011;43413;-33.790;150.826;2022-10-15T07:15:15;5.22;;;1.13;;
57577;SDS011;43413;-33.790;150.826;2022-10-15T07:17:47;3.92;;;1.13;;
57577;SDS011;43413;-33.790;150.826;2022-10-15T07:20:15;2.78;;;0.82;;
57577;SDS011;43413;-33.790;150.826;2022-10-15T07:22:42;3.97;;;0.95;;
57577;SDS011;43413;-33.790;150.826;2022-10-15T07:25:09;5.55;;;0.82;;
57577;SDS011;43413;-33.790;150.826;2022-10-15T07:27:37;2.58;;;0.80;;
57577;SDS011;43413;-33.790;150.826;2022-10-15T07:30:05;5.22;;;0.77;;
57577;SDS011;43413;-33.790;150.826;2022-10-15T07:32:33;6.47;;;0.77;;
57577;SDS011;43413;-33.790;150.826;2022-10-15T07:35:00;3.58;;;0.90;;
57577;SDS011;43413;-33.790;150.826;2022-10-15T07:37:27;4.15;;;0.77;;
57577;SDS011;43413;-33.790;150.826;2022-10-15T07:39:56;5.55;;;1.10;;
57577;SDS011;43413;-33.790;150.826;2022-10-15T07:42:23;3.67;;;1.00;;
57577;SDS011;43413;-33.790;150.826;2022-10-15T07:44:50;4.95;;;1.40;;
57577;SDS011;43413;-33.790;150.826;2022-10-15T07:47:18;6.47;;;0.80;;
57577;SDS011;43413;-33.790;150.826;2022-10-15T07:49:45;8.02;;;0.98;;
57577;SDS011;43413;-33.790;150.826;2022-10-15T07:52:12;4.30;;;0.90;;
57577;SDS011;43413;-33.790;150.826;2022-10-15T07:54:39;3.67;;;0.90;;
57577;SDS011;43413;-33.790;150.826;2022-10-15T07:57:06;2.95;;;0.98;;
57577;SDS011;43413;-33.790;150.826;2022-10-15T07:59:34;3.58;;;0.77;;
57577;SDS011;43413;-33.790;150.826;2022-10-15T08:02:01;3.60;;;1.00;;
57577;SDS011;43413;-33.790;150.826;2022-10-15T08:04:28;2.75;;;0.95;;
57577;SDS011;43413;-33.790;150.826;2022-10-15T08:06:56;7.57;;;1.15;;
57577;SDS011;43413;-33.790;150.826;2022-10-15T08:09:23;5.45;;;1.10;;
57577;SDS011;43413;-33.790;150.826;2022-10-15T08:11:51;6.20;;;1.20;;
57577;SDS011;43413;-33.790;150.826;2022-10-15T08:14:18;3.47;;;0.80;;
57577;SDS011;43413;-33.790;150.826;2022-10-15T08:16:45;4.50;;;1.13;;
57577;SDS011;43413;-33.790;150.826;2022-10-15T08:19:12;7.25;;;1.00;;
57577;SDS011;43413;-33.790;150.826;2022-10-15T08:21:45;3.08;;;0.90;;
57577;SDS011;43413;-33.790;150.826;2022-10-15T08:24:12;4.63;;;0.90;;
57577;SDS011;43413;-33.790;150.826;2022-10-15T08:26:39;5.57;;;0.98;;
57577;SDS011;43413;-33.790;150.826;2022-10-15T08:29:06;3.10;;;0.75;;
57577;SDS011;43413;-33.790;150.826;2022-10-15T08:31:33;7.43;;;0.90;;
57577;SDS011;43413;-33.790;150.826;2022-10-15T08:34:01;4.13;;;0.90;;
57577;SDS011;43413;-33.790;150.826;2022-10-15T08:36:28;3.72;;;0.73;;
57577;SDS011;43413;-33.790;150.826;2022-10-15T08:38:56;4.22;;;0.90;;
57577;SDS011;43413;-33.790;150.826;2022-10-15T08:43:50;4.25;;;0.80;;
57577;SDS011;43413;-33.790;150.826;2022-10-15T08:46:19;5.75;;;0.80;;
57577;SDS011;43413;-33.790;150.826;2022-10-15T08:48:52;4.68;;;0.77;;
57577;SDS011;43413;-33.790;150.826;2022-10-15T08:51:20;5.13;;;0.95;;
57577;SDS011;43413;-33.790;150.826;2022-10-15T08:53:50;6.85;;;0.80;;
57577;SDS011;43413;-33.790;150.826;2022-10-15T08:56:23;6.30;;;0.80;;
57577;SDS011;43413;-33.790;150.826;2022-10-15T09:01:27;3.50;;;0.90;;
57577;SDS011;43413;-33.790;150.826;2022-10-15T09:06:33;4.53;;;1.00;;
57577;SDS011;43413;-33.790;150.826;2022-10-15T09:09:05;5.15;;;1.05;;
57577;SDS011;43413;-33.790;150.826;2022-10-15T09:14:03;3.40;;;1.25;;
57577;SDS011;43413;-33.790;150.826;2022-10-15T09:16:33;4.93;;;1.10;;
57577;SDS011;43413;-33.790;150.826;2022-10-15T09:19:01;5.88;;;0.65;;
57577;SDS011;43413;-33.790;150.826;2022-10-15T09:21:30;3.65;;;0.98;;
57577;SDS011;43413;-33.790;150.826;2022-10-15T09:24:00;5.70;;;1.05;;
57577;SDS011;43413;-33.790;150.826;2022-10-15T09:34:40;3.72;;;0.90;;
57577;SDS011;43413;-33.790;150.826;2022-10-15T09:40:09;6.80;;;0.88;;
57577;SDS011;43413;-33.790;150.826;2022-10-15T09:42:40;5.13;;;0.77;;
57577;SDS011;43413;-33.790;150.826;2022-10-15T09:45:09;3.97;;;0.93;;
57577;SDS011;43413;-33.790;150.826;2022-10-15T09:47:38;5.03;;;1.27;;
57577;SDS011;43413;-33.790;150.826;2022-10-15T09:50:07;4.55;;;1.10;;
57577;SDS011;43413;-33.790;150.826;2022-10-15T09:57:54;5.28;;;1.00;;
57577;SDS011;43413;-33.790;150.826;2022-10-15T10:00:23;2.40;;;0.88;;
57577;SDS011;43413;-33.790;150.826;2022-10-15T10:03:03;3.63;;;0.70;;
57577;SDS011;43413;-33.790;150.826;2022-10-15T10:05:32;4.57;;;1.05;;
57577;SDS011;43413;-33.790;150.826;2022-10-15T10:08:06;4.38;;;1.10;;
57577;SDS011;43413;-33.790;150.826;2022-10-15T10:10:34;5.78;;;0.90;;
57577;SDS011;43413;-33.790;150.826;2022-10-15T10:13:02;4.20;;;1.00;;
57577;SDS011;43413;-33.790;150.826;2022-10-15T10:15:32;7.45;;;0.95;;
57577;SDS011;43413;-33.790;150.826;2022-10-15T10:18:00;5.53;;;1.63;;
57577;SDS011;43413;-33.790;150.826;2022-10-15T10:20:31;4.05;;;1.20;;
57577;SDS011;43413;-33.790;150.826;2022-10-15T10:22:59;5.20;;;1.17;;
57577;SDS011;43413;-33.790;150.826;2022-10-15T10:30:48;6.75;;;1.20;;
57577;SDS011;43413;-33.790;150.826;2022-10-15T10:33:20;8.13;;;1.30;;
57577;SDS011;43413;-33.790;150.826;2022-10-15T10:35:49;3.92;;;0.90;;
57577;SDS011;43413;-33.790;150.826;2022-10-15T10:38:24;7.85;;;1.52;;
57577;SDS011;43413;-33.790;150.826;2022-10-15T10:40:55;3.30;;;1.20;;
57577;SDS011;43413;-33.790;150.826;2022-10-15T10:43:24;4.93;;;1.42;;
57577;SDS011;43413;-33.790;150.826;2022-10-15T10:45:53;8.40;;;1.38;;
57577;SDS011;43413;-33.790;150.826;2022-10-15T10:48:22;5.25;;;1.27;;
57577;SDS011;43413;-33.790;150.826;2022-10-15T10:51:00;7.13;;;1.27;;
57577;SDS011;43413;-33.790;150.826;2022-10-15T10:53:27;6.32;;;1.10;;
57577;SDS011;43413;-33.790;150.826;2022-10-15T10:55:55;5.57;;;1.08;;
57577;SDS011;43413;-33.790;150.826;2022-10-15T10:58:23;3.90;;;0.98;;
57577;SDS011;43413;-33.790;150.826;2022-10-15T11:00:53;3.42;;;1.10;;
57577;SDS011;43413;-33.790;150.826;2022-10-15T11:03:37;6.63;;;1.45;;
57577;SDS011;43413;-33.790;150.826;2022-10-15T11:06:17;5.43;;;1.23;;
57577;SDS011;43413;-33.790;150.826;2022-10-15T11:14:06;6.38;;;1.20;;
57577;SDS011;43413;-33.790;150.826;2022-10-15T11:19:17;5.03;;;1.13;;
57577;SDS011;43413;-33.790;150.826;2022-10-15T11:29:55;7.85;;;1.70;;
57577;SDS011;43413;-33.790;150.826;2022-10-15T11:43:10;6.43;;;1.50;;
57577;SDS011;43413;-33.790;150.826;2022-10-15T11:45:52;7.50;;;1.42;;
57577;SDS011;43413;-33.790;150.826;2022-10-15T11:48:39;4.57;;;1.10;;
57577;SDS011;43413;-33.790;150.826;2022-10-15T11:51:22;6.35;;;1.42;;
57577;SDS011;43413;-33.790;150.826;2022-10-15T11:54:04;4.70;;;1.55;;
57577;SDS011;43413;-33.790;150.826;2022-10-15T11:56:42;7.20;;;1.40;;
57577;SDS011;43413;-33.790;150.826;2022-10-15T12:01:46;5.00;;;1.60;;
57577;SDS011;43413;-33.790;150.826;2022-10-15T12:04:16;5.93;;;1.80;;
57577;SDS011;43413;-33.790;150.826;2022-10-15T12:06:47;5.57;;;1.38;;
57577;SDS011;43413;-33.790;150.826;2022-10-15T12:09:19;7.38;;;1.98;;
57577;SDS011;43413;-33.790;150.826;2022-10-15T12:11:52;6.95;;;1.70;;
57577;SDS011;43413;-33.790;150.826;2022-10-15T12:17:22;6.35;;;1.52;;
57577;SDS011;43413;-33.790;150.826;2022-10-15T12:19:58;3.92;;;1.25;;
57577;SDS011;43413;-33.790;150.826;2022-10-15T12:22:30;5.53;;;1.27;;
57577;SDS011;43413;-33.790;150.826;2022-10-15T12:24:58;5.57;;;1.50;;
57577;SDS011;43413;-33.790;150.826;2022-10-15T12:27:26;8.77;;;2.25;;
57577;SDS011;43413;-33.790;150.826;2022-10-15T12:32:35;6.10;;;1.52;;
57577;SDS011;43413;-33.790;150.826;2022-10-15T12:37:43;5.10;;;1.50;;
57577;SDS011;43413;-33.790;150.826;2022-10-15T12:42:54;6.05;;;1.40;;
57577;SDS011;43413;-33.790;150.826;2022-10-15T12:45:24;12.13;;;1.52;;
57577;SDS011;43413;-33.790;150.826;2022-10-15T12:48:34;5.80;;;1.50;;
57577;SDS011;43413;-33.790;150.826;2022-10-15T12:50:42;3.50;;;1.20;;
57577;SDS011;43413;-33.790;150.826;2022-10-15T12:56:39;7.97;;;1.50;;
57577;SDS011;43413;-33.790;150.826;2022-10-15T12:58:54;4.93;;;1.50;;
57577;SDS011;43413;-33.790;150.826;2022-10-15T13:08:50;4.10;;;1.50;;
57577;SDS011;43413;-33.790;150.826;2022-10-15T13:11:32;7.28;;;1.58;;
57577;SDS011;43413;-33.790;150.826;2022-10-15T13:14:02;7.32;;;1.60;;
57577;SDS011;43413;-33.790;150.826;2022-10-15T13:16:35;7.35;;;1.48;;
57577;SDS011;43413;-33.790;150.826;2022-10-15T13:19:03;5.13;;;1.30;;
57577;SDS011;43413;-33.790;150.826;2022-10-15T13:21:47;8.55;;;1.60;;
57577;SDS011;43413;-33.790;150.826;2022-10-15T13:24:19;7.63;;;1.60;;
57577;SDS011;43413;-33.790;150.826;2022-10-15T13:26:47;7.22;;;1.48;;
57577;SDS011;43413;-33.790;150.826;2022-10-15T13:29:16;7.05;;;1.50;;
57577;SDS011;43413;-33.790;150.826;2022-10-15T13:31:43;6.28;;;1.52;;
57577;SDS011;43413;-33.790;150.826;2022-10-15T13:36:50;8.30;;;1.40;;
57577;SDS011;43413;-33.790;150.826;2022-10-15T13:39:28;6.97;;;1.50;;
57577;SDS011;43413;-33.790;150.826;2022-10-15T13:44:32;10.10;;;1.60;;
57577;SDS011;43413;-33.790;150.826;2022-10-15T13:46:59;5.72;;;1.38;;
57577;SDS011;43413;-33.790;150.826;2022-10-15T13:49:27;9.35;;;1.73;;
57577;SDS011;43413;-33.790;150.826;2022-10-15T13:51:54;3.72;;;1.40;;
57577;SDS011;43413;-33.790;150.826;2022-10-15T13:54:22;4.80;;;1.83;;
57577;SDS011;43413;-33.790;150.826;2022-10-15T13:56:54;4.75;;;1.52;;
57577;SDS011;43413;-33.790;150.826;2022-10-15T13:59:24;5.78;;;1.60;;
57577;SDS011;43413;-33.790;150.826;2022-10-15T14:01:53;3.78;;;1.60;;
57577;SDS011;43413;-33.790;150.826;2022-10-15T14:04:26;6.45;;;1.75;;
57577;SDS011;43413;-33.790;150.826;2022-10-15T14:09:22;6.07;;;1.90;;
57577;SDS011;43413;-33.790;150.826;2022-10-15T14:11:54;6.20;;;1.70;;
57577;SDS011;43413;-33.790;150.826;2022-10-15T14:14:32;5.55;;;1.83;;
57577;SDS011;43413;-33.790;150.826;2022-10-15T14:17:05;5.47;;;1.80;;
57577;SDS011;43413;-33.790;150.826;2022-10-15T14:19:34;6.40;;;2.38;;
57577;SDS011;43413;-33.790;150.826;2022-10-15T14:22:02;6.75;;;1.75;;
57577;SDS011;43413;-33.790;150.826;2022-10-15T14:24:34;4.97;;;2.15;;
57577;SDS011;43413;-33.790;150.826;2022-10-15T14:27:03;4.80;;;1.60;;
57577;SDS011;43413;-33.790;150.826;2022-10-15T14:29:35;7.07;;;2.13;;
57577;SDS011;43413;-33.790;150.826;2022-10-15T14:32:16;9.23;;;1.85;;
57577;SDS011;43413;-33.790;150.826;2022-10-15T14:34:44;11.10;;;2.53;;
57577;SDS011;43413;-33.790;150.826;2022-10-15T14:40:09;8.13;;;2.45;;
57577;SDS011;43413;-33.790;150.826;2022-10-15T14:42:45;7.35;;;2.20;;
57577;SDS011;43413;-33.790;150.826;2022-10-15T14:45:28;5.57;;;2.00;;
57577;SDS011;43413;-33.790;150.826;2022-10-15T14:47:57;10.55;;;2.47;;
57577;SDS011;43413;-33.790;150.826;2022-10-15T14:50:29;7.95;;;2.20;;
57577;SDS011;43413;-33.790;150.826;2022-10-15T14:52:57;5.90;;;1.88;;
57577;SDS011;43413;-33.790;150.826;2022-10-15T14:57:52;6.28;;;2.10;;
57577;SDS011;43413;-33.790;150.826;2022-10-15T15:00:22;9.18;;;2.03;;
57577;SDS011;43413;-33.790;150.826;2022-10-15T15:02:50;9.60;;;2.35;;
57577;SDS011;43413;-33.790;150.826;2022-10-15T15:05:19;7.97;;;2.13;;
57577;SDS011;43413;-33.790;150.826;2022-10-15T15:07:46;10.60;;;2.47;;
57577;SDS011;43413;-33.790;150.826;2022-10-15T15:10:14;7.85;;;2.08;;
57577;SDS011;43413;-33.790;150.826;2022-10-15T15:12:42;10.60;;;2.65;;
57577;SDS011;43413;-33.790;150.826;2022-10-15T15:15:15;10.88;;;2.58;;
57577;SDS011;43413;-33.790;150.826;2022-10-15T15:17:42;12.27;;;4.03;;
57577;SDS011;43413;-33.790;150.826;2022-10-15T15:20:10;11.32;;;3.00;;
57577;SDS011;43413;-33.790;150.826;2022-10-15T15:22:37;11.98;;;2.85;;
57577;SDS011;43413;-33.790;150.826;2022-10-15T15:25:27;10.65;;;3.17;;
57577;SDS011;43413;-33.790;150.826;2022-10-15T15:27:54;6.85;;;2.40;;
57577;SDS011;43413;-33.790;150.826;2022-10-15T15:30:22;12.75;;;2.38;;
57577;SDS011;43413;-33.790;150.826;2022-10-15T15:32:50;14.40;;;2.72;;
57577;SDS011;43413;-33.790;150.826;2022-10-15T15:37:45;10.70;;;2.58;;
57577;SDS011;43413;-33.790;150.826;2022-10-15T15:40:12;13.15;;;2.60;;
57577;SDS011;43413;-33.790;150.826;2022-10-15T15:42:40;12.77;;;2.50;;
57577;SDS011;43413;-33.790;150.826;2022-10-15T15:45:26;13.32;;;2.72;;
57577;SDS011;43413;-33.790;150.826;2022-10-15T15:50:26;8.68;;;1.90;;
57577;SDS011;43413;-33.790;150.826;2022-10-15T15:52:53;10.10;;;2.35;;
57577;SDS011;43413;-33.790;150.826;2022-10-15T15:55:21;5.90;;;1.77;;
57577;SDS011;43413;-33.790;150.826;2022-10-15T15:57:48;8.32;;;2.00;;
57577;SDS011;43413;-33.790;150.826;2022-10-15T16:00:16;6.60;;;1.88;;
57577;SDS011;43413;-33.790;150.826;2022-10-15T16:02:43;9.32;;;2.08;;
57577;SDS011;43413;-33.790;150.826;2022-10-15T16:05:12;5.55;;;2.17;;
57577;SDS011;43413;-33.790;150.826;2022-10-15T16:07:40;8.07;;;2.35;;
57577;SDS011;43413;-33.790;150.826;2022-10-15T16:10:08;7.93;;;1.90;;
57577;SDS011;43413;-33.790;150.826;2022-10-15T16:12:37;7.05;;;1.80;;
57577;SDS011;43413;-33.790;150.826;2022-10-15T16:15:05;9.40;;;2.05;;
57577;SDS011;43413;-33.790;150.826;2022-10-15T16:17:32;7.00;;;1.80;;
57577;SDS011;43413;-33.790;150.826;2022-10-15T16:20:00;7.05;;;1.95;;
57577;SDS011;43413;-33.790;150.826;2022-10-15T16:22:27;7.03;;;1.67;;
57577;SDS011;43413;-33.790;150.826;2022-10-15T16:24:55;7.20;;;1.83;;
57577;SDS011;43413;-33.790;150.826;2022-10-15T16:27:22;14.50;;;1.95;;
57577;SDS011;43413;-33.790;150.826;2022-10-15T16:29:50;7.05;;;1.88;;